Weather observations for the past three days for
Buffalo
Imperial (Metric)
Date Time (mdt) Wind (mph) Vis. (mi.) Weather Sky Cond. Temperature (ºF) Relative Humidity Wind Chill (°F) Heat Index (°F) Pressure Precipitation (in)
Air Dwpt 6 hour altimeter (in) sea level (mb) 1 hr 3 hr 6 hr
Max. Min.
06 01:56 W 12 0.00 NULL NULL 26.1 17.1 69% 16 30.04 1019.7
06 00:56 NW 12 0.00 NULL NULL 26.1 17.1 69% 16 30.04 1020.1
05 23:56 NW 8 0.00 NULL NULL 28.9 17.1 42.1 28 61% 22 30.04 1019.8
05 22:56 NW 7 0.00 NULL NULL 30.9 16 54% 25 30.04 1019.7
05 21:56 N 10 0.00 NULL NULL 35.1 18 50% 28 30.04 1019.4
05 20:56 NW 9 0.00 NULL NULL 37.9 17.1 43% 32 30.03 1018.9
05 19:56 NW 14 0.00 NULL NULL 37.9 18 44% 30 30 1017.8
05 18:56 NW 18 0.00 NULL NULL 41 16 36% 33 29.98 1017.6
05 17:56 NW 20 0.00 NULL NULL 42.1 16 45 41 35% 34 29.98 1017.6
05 16:56 NW 25 G 32 0.00 Breezy NULL 45 18 34% 37 29.96 1016.9
05 15:56 N 24 G 37 0.00 Breezy NULL 43 17.1 35% 34 29.96 1017.2
05 14:56 NW 21 G 31 0.00 Breezy NULL 44.1 17.1 34% 36 29.96 1016.8
05 13:56 NW 20 G 30 0.00 NULL NULL 44.1 18 35% 37 29.97 1017.0
05 12:56 NW 26 G 36 0.00 Windy NULL 41 19 41% 31 29.96 1016.9
05 11:56 NW 23 G 33 0.00 Breezy NULL 42.1 19 43 27 40% 33 29.96 1016.5
05 10:56 NW 22 G 35 0.00 Breezy NULL 41 19 41% 32 29.96 1016.4
05 09:56 NW 21 G 31 0.00 Breezy NULL 39.9 19 43% 31 29.97 1016.4
05 08:56 NW 15 0.00 NULL NULL 39 21 48% 31 29.98 1016.9
05 07:56 NW 16 0.00 NULL NULL 37 23 57% 28 29.97 1016.8
05 06:56 NW 7 0.00 NULL NULL 30.9 24.1 76% 25 29.95 1016.1
05 05:56 W 9 0.00 NULL NULL 28 23 35.1 23 81% 20 29.93 1015.6
05 04:56 NW 9 0.00 NULL NULL 26.1 21 81% 18 29.94 1015.6
05 03:56 W 6 0.00 NULL NULL 25 21 85% 19 29.94 1015.7
05 02:56 NW 6 0.00 NULL NULL 27 21 78% 21 29.93 1015.5
05 01:56 N 12 0.00 NULL NULL 30 23 75% 21 29.93 1015.2
05 00:56 NW 10 0.00 NULL NULL 33.1 21.9 64% 26 29.93 1014.9
04 23:56 NW 14 0.00 NULL NULL 34 23 51.1 34 64% 25 29.92 1014.5
04 22:56 N 12 0.00 NULL NULL 37.9 23 55% 31 29.91 1013.9
04 21:56 N 9 0.00 NULL NULL 41 24.1 51% 36 29.9 1013.6
04 20:56 N 14 0.00 NULL NULL 43 23 45% 37 29.88 1012.8
04 19:56 N 12 0.00 NULL NULL 44.1 25 47% 39 29.84 1011.6
04 18:56 N 22 0.00 Breezy NULL 48 24.1 39% 41 29.82 1010.7
04 17:56 NW 26 G 37 0.00 Windy NULL 50 25 54 48.9 38% 43 29.81 1010.3
04 16:56 N 26 G 36 0.00 Windy NULL 53.1 25 34% 29.8 1009.8
04 15:56 NW 28 G 43 0.00 Windy NULL 53.1 25 34% 29.81 1010.3
04 14:56 NW 31 G 44 0.00 Windy NULL 51.1 26.1 38% 29.83 1010.5
04 13:56 NW 24 G 39 0.00 Breezy NULL 51.1 27 39% 29.83 1010.4
04 12:56 NW 30 G 40 0.00 Windy NULL 52 26.1 37% 29.83 1010.1
04 11:56 NW 29 G 39 0.00 Windy NULL 52 26.1 52 44.1 37% 29.83 1010.4
04 10:56 NW 28 G 40 0.00 Windy NULL 52 27 38% 29.83 1010.2
04 09:56 NW 23 G 35 0.00 Breezy NULL 48.9 28.9 46% 42 29.83 1010.5
04 08:56 N 16 0.00 NULL NULL 46 33.1 61% 40 29.83 1010.4
04 07:56 NW 22 G 31 0.00 Breezy NULL 46 35.1 66% 39 29.8 1009.2
04 06:56 NW 20 0.00 NULL NULL 45 34 66% 38 29.79 1008.2
04 05:56 NW 17 0.00 NULL NULL 44.1 30 55 41 58% 37 29.77 1007.7
04 04:56 N 14 0.00 NULL NULL 42.1 32 68% 35 29.76 1007.4
04 03:56 NW 6 0.00 NULL NULL 41 34 76% 38 29.72 1005.9
04 02:56 NE 8 0.00 NULL NULL 46 35.1 66% 42 29.69 1004.6
04 01:56 N 15 0.00 NULL NULL 50 33.1 52% 45 29.67 1003.8
04 00:56 NW 14 0.00 NULL NULL 52 32 47% 29.65 1003.0
03 23:56 W 15 0.00 NULL NULL 48.9 33.1 70 48.9 55% 44 29.64 1003.1
03 22:56 W 10 0.00 NULL NULL 51.1 33.1 50% 29.64 1003.0
03 21:56 W 9 0.00 NULL NULL 51.1 33.1 50% 29.66 1003.7
03 20:56 W 13 0.00 NULL NULL 53.1 35.1 51% 29.67 1004.2
03 19:56 NW 14 0.00 NULL NULL 60.1 37 42% 29.67 1004.4
03 18:56 NW 14 0.00 NULL NULL 66.9 34 30% 29.68 1004.5
03 17:56 NW 22 G 29 0.00 Breezy NULL 70 33.1 73 66 26% 29.69 1004.9
03 16:56 W 17 G 30 0.00 NULL NULL 71.1 34 26% 29.71 1005.7
03 15:56 W 24 G 30 0.00 Breezy NULL 71.1 33.1 25% 29.73 1006.1
03 14:56 W 20 G 29 0.00 NULL NULL 69.1 35.1 29% 29.77 1007.6
03 13:56 W 21 G 25 0.00 Breezy NULL 70 36 29% 29.8 1008.7
03 12:56 W 15 G 28 0.00 NULL NULL 69.1 35.1 29% 29.84 1009.8
03 11:56 W 8 G 23 0.00 NULL NULL 66 33.1 66.9 41 29% 29.88 1011.5
03 10:56 W 10 0.00 NULL NULL 64 32 30% 29.92 1012.7
03 09:56 SW 8 0.00 NULL NULL 62.1 32 32% 29.93 1013.0
03 08:56 SW 5 0.00 NULL NULL 57 36 45% 29.95 1013.9
03 07:56 W 6 0.00 NULL NULL 51.1 35.1 54% 29.97 1014.8
03 06:56 SW 6 0.00 NULL NULL 44.1 34 68% 41 29.97 1014.9
03 05:56 W 5 0.00 NULL NULL 43 32 48 39.9 65% 41 29.97 1014.6
03 04:56 W 6 0.00 NULL NULL 39.9 32 73% 36 29.98 1015.2
03 03:56 NW 3 0.00 NULL NULL 46 28.9 51% 29.98 1014.6
03 02:56 W 5 0.00 NULL NULL 44.1 30.9 60% 42 29.98 1014.7
Date Time (mdt) Wind (mph) Vis. (mi.) Weather Sky Cond. Air Dwpt Max. Min. Relative Humidity Wind Chill (°F) Heat Index (°F) altimeter (in) sea level (mb) 1 hr 3 hr 6 hr
6 hour
Temperature (ºF) Pressure Precipitation (in)